Time;durP1;ratioP1;P1;durP2;ratioP2;P2;SDS_P1;SDS_P2;PMS_P1;PMS_P2;Temp;Humidity;BMP_temperature;BMP_pressure;BME280_temperature;BME280_humidity;BME280_pressure;Samples;Min_cycle;Max_cycle;Signal;HPM_P1;HPM_P2
2021/03/24 00:01:29;;;;;;;60.88;36.15;;;4.90;89.40;;;;;;5004961;28;21234;-69
2021/03/24 00:03:55;;;;;;;61.67;34.90;;;4.90;89.40;;;;;;5000065;28;20335;-67
2021/03/24 00:06:21;;;;;;;70.97;38.60;;;4.90;89.50;;;;;;5002754;28;20026;-67
2021/03/24 00:08:47;;;;;;;67.15;36.15;;;4.90;89.60;;;;;;4983903;28;20125;-68
2021/03/24 00:11:14;;;;;;;65.78;36.55;;;4.80;89.60;;;;;;5001403;28;20046;-67
2021/03/24 00:13:41;;;;;;;68.25;37.63;;;4.80;89.70;;;;;;5000988;28;20030;-67
2021/03/24 00:16:07;;;;;;;63.85;37.88;;;4.80;89.70;;;;;;5004507;28;20482;-67
2021/03/24 00:18:33;;;;;;;65.15;37.78;;;4.90;89.70;;;;;;5001402;28;20534;-67
2021/03/24 00:21:00;;;;;;;68.88;37.17;;;4.90;89.70;;;;;;5003398;28;20026;-67
2021/03/24 00:23:25;;;;;;;71.18;37.85;;;4.90;89.80;;;;;;5004215;28;20232;-70
2021/03/24 00:25:51;;;;;;;70.32;38.08;;;4.90;89.80;;;;;;5000643;28;20029;-68
2021/03/24 00:28:18;;;;;;;73.90;39.38;;;4.90;89.80;;;;;;5003981;28;20030;-70
2021/03/24 00:30:46;;;;;;;64.85;38.40;;;4.90;89.70;;;;;;5003065;28;20053;-67
2021/03/24 00:33:15;;;;;;;67.03;37.78;;;4.90;89.50;;;;;;5005400;28;20093;-68
2021/03/24 00:35:41;;;;;;;74.45;37.67;;;4.90;89.50;;;;;;5002088;28;20129;-68
2021/03/24 00:38:07;;;;;;;68.03;37.60;;;4.90;89.40;;;;;;5003225;28;20109;-69
2021/03/24 00:40:36;;;;;;;70.13;38.30;;;5.00;89.40;;;;;;5003302;28;20076;-68
2021/03/24 00:43:04;;;;;;;68.32;36.88;;;4.90;89.40;;;;;;5004375;28;20026;-67
2021/03/24 00:45:31;;;;;;;66.72;37.58;;;4.90;89.30;;;;;;5002817;28;20033;-66
2021/03/24 00:47:56;;;;;;;73.13;37.80;;;4.90;89.40;;;;;;5004637;28;20029;-67
2021/03/24 00:50:25;;;;;;;70.85;36.80;;;4.90;89.40;;;;;;4999825;28;20044;-67
2021/03/24 00:52:51;;;;;;;71.53;38.15;;;4.90;89.30;;;;;;5002999;28;20030;-67
2021/03/24 00:55:17;;;;;;;67.97;38.53;;;4.90;89.00;;;;;;5002480;28;20036;-66
2021/03/24 00:57:43;;;;;;;69.55;37.80;;;4.90;89.00;;;;;;5004165;28;20041;-69
2021/03/24 01:00:18;;;;;;;69.07;36.60;;;4.90;89.10;;;;;;5002450;28;20032;-67
2021/03/24 01:02:44;;;;;;;70.50;36.90;;;4.90;89.00;;;;;;5001846;28;20226;-68
2021/03/24 01:05:12;;;;;;;75.38;38.42;;;5.00;88.90;;;;;;5001232;28;20026;-67
2021/03/24 01:07:40;;;;;;;63.95;37.78;;;5.00;88.90;;;;;;5003402;28;20100;-68
2021/03/24 01:10:07;;;;;;;65.88;36.90;;;5.00;89.00;;;;;;5002228;28;20470;-67
2021/03/24 01:12:33;;;;;;;67.70;37.38;;;5.00;88.80;;;;;;5002498;28;20030;-67
2021/03/24 01:14:58;;;;;;;70.55;36.50;;;5.00;88.60;;;;;;5002378;28;20025;-67
2021/03/24 01:17:24;;;;;;;69.35;38.90;;;5.00;88.70;;;;;;5004204;28;20037;-66
2021/03/24 01:19:50;;;;;;;66.60;37.45;;;5.00;88.70;;;;;;5002835;28;20024;-68
2021/03/24 01:22:15;;;;;;;68.75;38.33;;;5.00;88.80;;;;;;5005265;28;20503;-67
2021/03/24 01:24:41;;;;;;;68.45;37.90;;;5.00;88.80;;;;;;5006477;28;20064;-68
2021/03/24 01:27:07;;;;;;;64.20;37.10;;;5.00;88.80;;;;;;5007054;28;20034;-66
2021/03/24 01:29:33;;;;;;;66.82;37.15;;;5.00;88.80;;;;;;5005317;28;20029;-67
2021/03/24 01:31:58;;;;;;;70.60;37.17;;;5.00;88.80;;;;;;5006892;28;20030;-67
2021/03/24 01:34:24;;;;;;;71.95;38.25;;;5.00;88.50;;;;;;5004960;28;20095;-67
2021/03/24 01:36:49;;;;;;;76.25;38.53;;;5.00;88.60;;;;;;5008526;28;20026;-66
2021/03/24 01:39:15;;;;;;;72.63;38.70;;;5.00;88.70;;;;;;5007542;28;20462;-67
2021/03/24 01:41:40;;;;;;;76.05;39.47;;;5.10;88.60;;;;;;5008032;28;20030;-69
2021/03/24 01:44:06;;;;;;;69.35;37.33;;;5.10;88.50;;;;;;5006887;28;20033;-67
2021/03/24 01:46:42;;;;;;;68.82;38.17;;;5.10;88.10;;;;;;5002869;28;20072;-67
2021/03/24 01:49:36;;;;;;;69.68;37.95;;;5.10;88.10;;;;;;5004491;28;20034;-67
2021/03/24 01:52:05;;;;;;;69.50;36.55;;;5.10;88.20;;;;;;5006849;28;20041;-66
2021/03/24 01:54:36;;;;;;;73.60;38.58;;;5.10;88.30;;;;;;5004693;28;20036;-67
2021/03/24 01:57:06;;;;;;;71.68;40.58;;;5.10;88.40;;;;;;5005272;28;20033;-69
2021/03/24 01:59:32;;;;;;;68.60;37.97;;;5.00;88.60;;;;;;5001097;28;20037;-68
2021/03/24 02:01:58;;;;;;;72.82;38.90;;;5.00;88.60;;;;;;5012738;28;20091;-69
2021/03/24 02:04:23;;;;;;;70.22;38.05;;;5.00;88.60;;;;;;5002471;28;20025;-66
2021/03/24 02:07:08;;;;;;;69.55;37.72;;;5.00;88.60;;;;;;5008908;28;20491;-67
2021/03/24 02:09:44;;;;;;;71.13;39.00;;;5.00;88.70;;;;;;5007469;28;20444;-66
2021/03/24 02:12:31;;;;;;;78.43;40.05;;;4.90;88.80;;;;;;5007454;28;20026;-67
2021/03/24 02:15:30;;;;;;;78.53;39.42;;;5.00;88.90;;;;;;5006776;28;20030;-67
2021/03/24 02:17:57;;;;;;;75.53;38.50;;;4.90;88.90;;;;;;5005029;28;20537;-67
2021/03/24 02:20:32;;;;;;;77.60;39.85;;;5.00;89.00;;;;;;5004542;28;20092;-67
2021/03/24 02:23:25;;;;;;;75.28;38.15;;;4.90;89.10;;;;;;5006819;28;20044;-67
2021/03/24 02:25:56;;;;;;;74.38;38.42;;;4.90;89.20;;;;;;5008493;28;20029;-68
2021/03/24 02:28:22;;;;;;;76.88;40.25;;;4.90;89.20;;;;;;4999735;28;20175;-68
2021/03/24 02:30:49;;;;;;;81.95;41.47;;;4.80;89.30;;;;;;5008488;28;20042;-69
2021/03/24 02:33:21;;;;;;;80.63;41.25;;;4.80;89.30;;;;;;5006630;28;20494;-68
2021/03/24 02:35:50;;;;;;;82.40;40.03;;;4.80;89.30;;;;;;5004515;28;20045;-68
2021/03/24 02:38:18;;;;;;;79.40;40.97;;;4.80;89.40;;;;;;4998641;28;20391;-68
2021/03/24 02:40:46;;;;;;;78.25;38.88;;;4.80;89.40;;;;;;4989098;28;20038;-69
2021/03/24 02:43:13;;;;;;;80.22;40.88;;;4.80;89.50;;;;;;4995743;28;20573;-68
2021/03/24 02:45:42;;;;;;;81.85;41.20;;;4.80;89.60;;;;;;5007539;28;20033;-69
2021/03/24 02:48:14;;;;;;;79.50;40.90;;;4.80;89.50;;;;;;5005493;28;20128;-68
2021/03/24 02:50:42;;;;;;;80.85;41.53;;;4.80;89.50;;;;;;4999557;28;20037;-69
2021/03/24 02:53:09;;;;;;;84.80;41.47;;;4.80;89.70;;;;;;4997822;28;20026;-69
2021/03/24 02:55:38;;;;;;;81.63;40.90;;;4.80;89.50;;;;;;5001157;28;20029;-67
2021/03/24 02:58:04;;;;;;;81.88;41.13;;;4.80;89.60;;;;;;5006883;28;20022;-70
2021/03/24 03:00:31;;;;;;;80.13;40.28;;;4.80;89.60;;;;;;5008384;28;20060;-69
2021/03/24 03:03:02;;;;;;;79.57;40.40;;;4.80;89.60;;;;;;5003116;28;20538;-69
2021/03/24 03:05:32;;;;;;;;;;;4.80;89.60;;;;;;5008842;28;20052;-68
2021/03/24 03:08:07;;;;;;;88.53;39.70;;;4.80;89.60;;;;;;5005150;28;19969;-67
2021/03/24 03:11:01;;;;;;;87.90;41.45;;;4.80;89.50;;;;;;5007862;28;20033;-69
2021/03/24 03:13:49;;;;;;;82.80;39.92;;;4.80;89.60;;;;;;4989770;28;20018;-68
2021/03/24 03:16:49;;;;;;;84.72;40.92;;;4.80;89.50;;;;;;5000704;28;20034;-67
2021/03/24 03:19:28;;;;;;;82.95;40.00;;;4.80;89.60;;;;;;4999315;28;20120;-68
2021/03/24 03:21:59;;;;;;;84.32;40.83;;;4.80;89.50;;;;;;5001621;28;20494;-70
2021/03/24 03:24:27;;;;;;;;;;;4.90;89.50;;;;;;4998859;28;20037;-67
2021/03/24 03:26:57;;;;;;;76.43;40.05;;;4.90;89.20;;;;;;5007827;28;19911;-69
2021/03/24 03:29:24;;;;;;;89.30;41.40;;;4.90;89.20;;;;;;5003900;28;20137;-70
2021/03/24 03:31:51;;;;;;;79.10;39.25;;;4.90;89.30;;;;;;5007574;28;20033;-67
2021/03/24 03:34:22;;;;;;;80.22;40.92;;;4.90;89.30;;;;;;5002879;28;20049;-68
2021/03/24 03:36:53;;;;;;;82.82;41.10;;;4.80;89.40;;;;;;5006894;28;20025;-69
2021/03/24 03:39:22;;;;;;;80.18;40.95;;;4.90;89.40;;;;;;5005986;28;20032;-68
2021/03/24 03:41:48;;;;;;;81.40;40.80;;;4.80;89.50;;;;;;5007576;28;20091;-68
2021/03/24 03:44:15;;;;;;;82.32;41.70;;;4.80;89.60;;;;;;5004988;28;20467;-68
2021/03/24 03:46:50;;;;;;;82.55;40.35;;;4.80;89.60;;;;;;5002245;28;20298;-68
2021/03/24 03:49:18;;;;;;;76.00;40.47;;;4.80;89.70;;;;;;5006436;28;20326;-68
2021/03/24 03:51:58;;;;;;;86.72;40.75;;;4.80;89.70;;;;;;5004666;28;20045;-67
2021/03/24 03:54:36;;;;;;;82.03;39.97;;;4.80;89.80;;;;;;5001250;28;20482;-68
2021/03/24 03:57:19;;;;;;;79.38;40.60;;;4.80;89.90;;;;;;5006734;28;20034;-67
2021/03/24 03:59:56;;;;;;;88.82;40.55;;;4.80;89.80;;;;;;5006818;28;20040;-68
2021/03/24 04:02:34;;;;;;;78.40;39.25;;;4.80;89.80;;;;;;4989361;28;20062;-67
2021/03/24 04:05:05;;;;;;;83.43;40.17;;;4.80;89.70;;;;;;5003495;28;20109;-68
2021/03/24 04:07:36;;;;;;;;;;;4.80;89.80;;;;;;5008021;28;20033;-68
2021/03/24 04:10:04;;;;;;;86.15;40.63;;;4.80;89.80;;;;;;5005719;28;20297;-68
2021/03/24 04:12:34;;;;;;;83.20;40.67;;;4.90;89.90;;;;;;5002362;28;20578;-68
2021/03/24 04:15:03;;;;;;;79.35;40.72;;;4.80;89.90;;;;;;5004300;28;20033;-70
2021/03/24 04:17:35;;;;;;;88.30;40.95;;;4.80;90.00;;;;;;5004584;28;20092;-66
2021/03/24 04:20:04;;;;;;;88.20;40.75;;;4.80;90.10;;;;;;4996864;28;20054;-68
2021/03/24 04:22:32;;;;;;;88.20;42.17;;;4.80;90.20;;;;;;5005311;28;20030;-69
2021/03/24 04:24:59;;;;;;;89.55;42.92;;;4.80;90.30;;;;;;5001777;28;20479;-67
2021/03/24 04:27:31;;;;;;;88.57;41.35;;;4.80;90.30;;;;;;4995731;28;20042;-68
2021/03/24 04:30:06;;;;;;;85.88;42.78;;;4.90;90.40;;;;;;5002498;28;20397;-67
2021/03/24 04:32:32;;;;;;;87.22;43.10;;;4.80;90.50;;;;;;5006187;28;20566;-68
2021/03/24 04:34:57;;;;;;;88.30;43.45;;;4.80;90.60;;;;;;5006123;28;20117;-67
2021/03/24 04:37:29;;;;;;;95.45;43.85;;;4.80;90.60;;;;;;4996196;28;20129;-68
2021/03/24 04:40:03;;;;;;;85.53;44.15;;;4.90;90.80;;;;;;5006619;28;20037;-68
2021/03/24 04:42:44;;;;;;;95.07;44.03;;;4.90;90.80;;;;;;4988401;28;20106;-68
2021/03/24 04:45:28;;;;;;;92.97;44.65;;;4.80;90.90;;;;;;5003433;28;20037;-68
2021/03/24 04:47:56;;;;;;;88.20;43.45;;;4.80;90.90;;;;;;4996372;28;20100;-68
2021/03/24 04:50:36;;;;;;;89.45;44.05;;;4.80;90.90;;;;;;5006376;28;20030;-69
2021/03/24 04:53:04;;;;;;;88.47;43.38;;;4.80;91.00;;;;;;5002743;28;20022;-67
2021/03/24 04:55:31;;;;;;;90.22;43.15;;;4.80;91.10;;;;;;5002132;28;20034;-68
2021/03/24 04:57:59;;;;;;;96.38;45.67;;;4.80;91.10;;;;;;4988420;28;20486;-68
2021/03/24 05:00:48;;;;;;;93.53;44.13;;;4.80;91.10;;;;;;4997938;28;20509;-68
2021/03/24 05:03:18;;;;;;;88.72;42.97;;;4.80;91.10;;;;;;4999318;28;20099;-68
2021/03/24 05:05:50;;;;;;;90.53;45.70;;;4.80;91.00;;;;;;5006112;28;20494;-67
2021/03/24 05:08:33;;;;;;;91.45;43.42;;;4.80;91.20;;;;;;5009374;28;20061;-67
2021/03/24 05:11:03;;;;;;;90.93;44.33;;;4.80;91.30;;;;;;5005794;28;20566;-67
2021/03/24 05:13:42;;;;;;;101.07;45.70;;;4.80;91.30;;;;;;5006883;28;20029;-68
2021/03/24 05:16:27;;;;;;;88.25;42.80;;;4.80;91.40;;;;;;5008618;28;20075;-67
2021/03/24 05:18:55;;;;;;;94.60;44.75;;;4.80;91.40;;;;;;4990969;28;20451;-66
2021/03/24 05:21:34;;;;;;;93.15;45.33;;;4.80;91.40;;;;;;4986548;28;20449;-68
2021/03/24 05:24:01;;;;;;;85.28;43.75;;;4.80;91.40;;;;;;4987142;28;20028;-66
2021/03/24 05:26:38;;;;;;;88.55;45.33;;;4.80;91.40;;;;;;4988176;28;20684;-67
2021/03/24 05:29:11;;;;;;;97.30;46.15;;;4.80;91.40;;;;;;4989186;28;20187;-68
2021/03/24 05:31:42;;;;;;;92.40;44.72;;;4.80;91.40;;;;;;5001246;28;20041;-67
2021/03/24 05:34:14;;;;;;;95.85;44.40;;;4.80;91.30;;;;;;4988330;28;20112;-68
2021/03/24 05:36:46;;;;;;;91.85;45.13;;;4.80;91.20;;;;;;4988098;28;20149;-68
2021/03/24 05:39:20;;;;;;;94.38;45.13;;;4.90;91.30;;;;;;4995060;28;20034;-68
2021/03/24 05:41:55;;;;;;;85.43;43.63;;;4.90;91.20;;;;;;5007341;28;20030;-68
2021/03/24 05:45:09;;;;;;;95.32;47.30;;;4.90;91.20;;;;;;5003762;28;20094;-67
2021/03/24 05:47:58;;;;;;;90.97;44.17;;;4.90;91.20;;;;;;4963989;28;20118;-68
2021/03/24 05:50:39;;;;;;;97.45;45.17;;;4.90;91.20;;;;;;4961526;28;20106;-67
2021/03/24 05:53:20;;;;;;;94.13;44.30;;;5.00;91.00;;;;;;4998568;28;20042;-67
2021/03/24 05:55:57;;;;;;;82.90;44.22;;;5.00;91.10;;;;;;5004656;28;20068;-67
2021/03/24 05:58:39;;;;;;;88.70;43.92;;;5.00;91.10;;;;;;5003742;28;20517;-68
2021/03/24 06:01:34;;;;;;;91.63;44.40;;;5.00;91.00;;;;;;5008626;28;20476;-67
2021/03/24 06:04:26;;;;;;;89.78;44.78;;;5.00;91.10;;;;;;5002703;28;20045;-67
2021/03/24 06:07:08;;;;;;;97.55;46.22;;;5.10;91.00;;;;;;4995214;28;20222;-67
2021/03/24 06:09:55;;;;;;;93.20;45.70;;;5.10;90.90;;;;;;5001084;28;20062;-69
2021/03/24 06:12:58;;;;;;;92.22;46.03;;;5.10;90.70;;;;;;4997509;28;20038;-67
2021/03/24 06:15:49;;;;;;;88.47;43.13;;;5.10;90.80;;;;;;5000329;28;20058;-66
2021/03/24 06:18:27;;;;;;;84.20;42.75;;;5.10;90.70;;;;;;5001611;28;20030;-67
2021/03/24 06:21:15;;;;;;;95.20;47.95;;;5.10;90.50;;;;;;5006228;28;20033;-66
2021/03/24 06:24:07;;;;;;;88.28;43.63;;;5.10;90.50;;;;;;5004386;28;20319;-67
2021/03/24 06:27:06;;;;;;;86.07;42.72;;;5.20;90.40;;;;;;5000118;28;20076;-68
2021/03/24 06:29:58;;;;;;;86.88;43.20;;;5.30;90.40;;;;;;5002110;28;20026;-68
2021/03/24 06:32:47;;;;;;;80.20;41.53;;;5.30;90.10;;;;;;4993073;28;20030;-68
2021/03/24 06:35:50;;;;;;;83.63;43.60;;;5.40;90.00;;;;;;5004168;28;20105;-67
2021/03/24 06:38:35;;;;;;;82.82;41.83;;;5.40;89.90;;;;;;5008167;28;20037;-68
2021/03/24 06:41:29;;;;;;;89.90;42.60;;;5.40;89.70;;;;;;5005690;28;20030;-67
2021/03/24 06:43:55;;;;;;;82.43;42.28;;;5.50;89.80;;;;;;5002588;28;20344;-67
2021/03/24 06:46:43;;;;;;;86.70;44.03;;;5.60;89.70;;;;;;5007939;28;20136;-67
2021/03/24 06:49:40;;;;;;;83.32;43.65;;;5.50;89.40;;;;;;4998151;28;20116;-67
2021/03/24 06:52:33;;;;;;;76.82;42.08;;;5.60;89.40;;;;;;5003953;28;20040;-67
2021/03/24 06:55:04;;;;;;;80.20;42.20;;;5.60;89.20;;;;;;5002662;28;20029;-68
2021/03/24 06:57:55;;;;;;;82.40;43.05;;;5.60;89.10;;;;;;4998774;28;20050;-67
2021/03/24 07:00:39;;;;;;;78.25;41.45;;;5.70;88.90;;;;;;4997299;28;20034;-67
2021/03/24 07:03:32;;;;;;;80.68;41.90;;;5.70;88.80;;;;;;5007518;28;20390;-67
2021/03/24 07:06:13;;;;;;;76.85;42.13;;;5.70;88.80;;;;;;5005305;28;20104;-68
2021/03/24 07:09:03;;;;;;;84.13;43.70;;;5.80;88.70;;;;;;5005925;28;20026;-68
2021/03/24 07:12:00;;;;;;;76.20;40.95;;;5.90;88.70;;;;;;5005549;28;20037;-67
2021/03/24 07:14:45;;;;;;;78.07;43.47;;;5.90;88.20;;;;;;5003838;28;20022;-68
2021/03/24 07:17:23;;;;;;;79.40;40.88;;;6.00;87.90;;;;;;4996115;28;20081;-68
2021/03/24 07:20:15;;;;;;;75.72;41.17;;;6.00;88.10;;;;;;5006497;28;20034;-67
2021/03/24 07:23:11;;;;;;;78.28;42.28;;;6.10;87.80;;;;;;5003851;28;20113;-67
2021/03/24 07:25:40;;;;;;;75.25;40.00;;;6.10;87.60;;;;;;4996355;28;20037;-67
2021/03/24 07:28:27;;;;;;;79.60;41.67;;;6.20;87.30;;;;;;5001237;28;20484;-67
2021/03/24 07:31:20;;;;;;;72.35;42.47;;;6.30;87.50;;;;;;5006311;28;20034;-67
2021/03/24 07:33:49;;;;;;;78.10;43.25;;;6.40;87.40;;;;;;4991581;28;20041;-69
2021/03/24 07:36:33;;;;;;;74.82;40.75;;;6.40;87.30;;;;;;5002839;28;20445;-67
2021/03/24 07:39:07;;;;;;;76.43;44.15;;;6.50;87.00;;;;;;5006555;28;20022;-67
2021/03/24 07:41:52;;;;;;;73.28;42.92;;;6.70;87.00;;;;;;4986490;28;20462;-68
2021/03/24 07:44:32;;;;;;;75.35;42.40;;;6.60;86.40;;;;;;4998922;28;20170;-67
2021/03/24 07:47:16;;;;;;;71.88;41.97;;;6.80;86.20;;;;;;5002304;28;20040;-67
2021/03/24 07:49:54;;;;;;;75.45;41.53;;;6.90;86.10;;;;;;4998348;28;20037;-66
2021/03/24 07:52:42;;;;;;;80.43;41.63;;;7.00;85.80;;;;;;4997996;28;20084;-67
2021/03/24 07:55:15;;;;;;;75.60;39.75;;;7.00;85.70;;;;;;4994365;28;20064;-68
2021/03/24 07:58:01;;;;;;;73.55;40.35;;;7.10;85.50;;;;;;4989747;28;20291;-67
2021/03/24 08:00:33;;;;;;;75.18;42.53;;;7.10;84.90;;;;;;4993536;28;20317;-67
2021/03/24 08:03:24;;;;;;;72.28;40.47;;;7.30;85.40;;;;;;5005205;28;20076;-68
2021/03/24 08:06:07;;;;;;;72.50;41.75;;;7.30;84.50;;;;;;5002220;28;20025;-67
2021/03/24 08:08:59;;;;;;;72.38;41.40;;;7.30;84.90;;;;;;5000908;28;20572;-66
2021/03/24 08:11:39;;;;;;;72.00;40.55;;;7.50;84.20;;;;;;4999731;28;20045;-67
2021/03/24 08:14:11;;;;;;;71.28;40.70;;;7.50;84.00;;;;;;5004368;28;20502;-68
2021/03/24 08:17:05;;;;;;;76.38;42.63;;;7.70;83.80;;;;;;5004675;28;20025;-67
2021/03/24 08:19:58;;;;;;;74.88;41.75;;;7.80;83.40;;;;;;4989370;28;20057;-67
2021/03/24 08:22:51;;;;;;;72.10;41.28;;;8.00;83.30;;;;;;4999498;28;20038;-68
2021/03/24 08:25:44;;;;;;;71.72;40.30;;;8.10;82.30;;;;;;5001802;28;20026;-67
2021/03/24 08:28:22;;;;;;;67.68;41.00;;;8.20;82.00;;;;;;4992794;28;20030;-68
2021/03/24 08:31:03;;;;;;;70.35;41.47;;;8.30;82.10;;;;;;4991309;28;20034;-67
2021/03/24 08:33:49;;;;;;;67.80;41.97;;;8.20;82.20;;;;;;5004064;28;20057;-67
2021/03/24 08:37:00;;;;;;;68.80;41.30;;;8.50;81.20;;;;;;5003630;28;20048;-67
2021/03/24 08:39:44;;;;;;;68.50;42.75;;;9.10;80.10;;;;;;4962528;28;20038;-67
2021/03/24 08:42:25;;;;;;;66.55;41.60;;;9.00;79.50;;;;;;5003701;28;20026;-68
2021/03/24 08:45:01;;;;;;;68.70;40.30;;;9.20;78.80;;;;;;5004784;28;20621;-68
2021/03/24 08:47:32;;;;;;;66.30;40.58;;;9.40;78.20;;;;;;5002030;28;20045;-67
2021/03/24 08:50:00;;;;;;;66.40;40.72;;;9.30;77.70;;;;;;5008806;28;20033;-68
2021/03/24 08:52:26;;;;;;;62.70;40.28;;;9.20;77.90;;;;;;5002963;28;20114;-68
2021/03/24 08:55:05;;;;;;;62.03;40.42;;;9.40;78.80;;;;;;5005464;28;20494;-68
2021/03/24 08:57:39;;;;;;;66.82;41.13;;;9.30;79.00;;;;;;5007013;28;20457;-68
2021/03/24 09:00:26;;;;;;;66.82;41.45;;;9.20;79.40;;;;;;5000003;28;20040;-69
2021/03/24 09:03:12;;;;;;;63.92;40.95;;;9.30;78.30;;;;;;5002062;28;20117;-68
2021/03/24 09:05:43;;;;;;;72.18;42.17;;;9.30;79.00;;;;;;5010457;28;20486;-69
2021/03/24 09:08:12;;;;;;;67.10;41.50;;;9.70;78.80;;;;;;4997448;28;20030;-68
2021/03/24 09:11:16;;;;;;;63.78;38.88;;;9.90;77.90;;;;;;5004463;28;20442;-68
2021/03/24 09:14:03;;;;;;;65.13;39.00;;;9.80;76.50;;;;;;4978495;28;20038;-69
2021/03/24 09:16:47;;;;;;;62.33;39.83;;;9.70;77.20;;;;;;4997369;28;20041;-68
2021/03/24 09:19:46;;;;;;;64.05;39.22;;;9.90;77.80;;;;;;5007866;28;20032;-68
2021/03/24 09:22:38;;;;;;;62.05;39.75;;;10.20;76.80;;;;;;5003569;28;20034;-68
2021/03/24 09:25:34;;;;;;;64.72;38.90;;;10.50;76.30;;;;;;5009159;28;20038;-68
2021/03/24 09:28:32;;;;;;;57.25;37.67;;;10.50;75.10;;;;;;4968615;28;20414;-68
2021/03/24 09:31:07;;;;;;;67.55;40.60;;;10.20;75.60;;;;;;5006971;28;20071;-68
2021/03/24 09:33:53;;;;;;;59.95;38.90;;;10.40;75.60;;;;;;4989696;28;20113;-68
2021/03/24 09:36:49;;;;;;;60.58;39.15;;;10.10;75.90;;;;;;4999832;28;20026;-69
2021/03/24 09:39:26;;;;;;;58.63;38.45;;;10.50;75.90;;;;;;5005101;28;20030;-68
2021/03/24 09:42:00;;;;;;;60.63;38.55;;;10.40;74.90;;;;;;5001324;28;20438;-68
2021/03/24 09:44:38;;;;;;;58.95;39.30;;;10.10;74.30;;;;;;5003934;28;20030;-69
2021/03/24 09:47:24;;;;;;;61.58;37.15;;;10.10;74.40;;;;;;5006757;28;20029;-68
2021/03/24 09:50:04;;;;;;;60.47;38.03;;;10.50;74.10;;;;;;5002645;28;20141;-68
2021/03/24 09:52:32;;;;;;;57.13;36.60;;;10.80;73.30;;;;;;4999680;28;20061;-67
2021/03/24 09:55:17;;;;;;;55.13;36.28;;;11.20;72.60;;;;;;5008086;28;20060;-68
2021/03/24 09:58:02;;;;;;;61.78;36.85;;;11.40;71.30;;;;;;5003989;28;20095;-68
2021/03/24 10:00:31;;;;;;;55.22;37.17;;;11.20;71.20;;;;;;4999354;28;20041;-69
2021/03/24 10:03:01;;;;;;;60.25;36.42;;;11.50;71.90;;;;;;5002532;28;20064;-67
2021/03/24 10:05:55;;;;;;;57.50;34.67;;;11.20;69.60;;;;;;5003732;28;20029;-69
2021/03/24 10:08:44;;;;;;;54.20;34.28;;;10.90;70.40;;;;;;5004087;28;20319;-68
2021/03/24 10:11:23;;;;;;;53.92;33.70;;;11.60;69.70;;;;;;5001292;28;20030;-68
2021/03/24 10:13:59;;;;;;;52.35;35.40;;;11.50;67.80;;;;;;5003830;28;20022;-68
2021/03/24 10:16:32;;;;;;;52.80;34.03;;;11.70;68.40;;;;;;5006998;28;20501;-68
2021/03/24 10:19:06;;;;;;;49.95;33.63;;;12.00;66.70;;;;;;5002631;28;20454;-68
2021/03/24 10:21:45;;;;;;;53.75;34.55;;;12.30;67.50;;;;;;5003330;28;20038;-69
2021/03/24 10:24:21;;;;;;;56.30;33.65;;;12.40;66.60;;;;;;5000559;28;20269;-68
2021/03/24 10:27:02;;;;;;;47.65;31.55;;;12.20;67.10;;;;;;5003674;28;20497;-69
2021/03/24 10:29:35;;;;;;;44.65;29.90;;;11.90;65.70;;;;;;5005894;28;20118;-68
2021/03/24 10:32:06;;;;;;;45.45;31.25;;;11.90;66.00;;;;;;5003910;28;20037;-68
2021/03/24 10:34:41;;;;;;;49.40;30.92;;;12.00;66.10;;;;;;5006946;28;20025;-68
2021/03/24 10:37:06;;;;;;;46.65;29.48;;;12.10;66.10;;;;;;5003352;28;20041;-67
2021/03/24 10:39:52;;;;;;;44.35;29.50;;;12.00;65.60;;;;;;4998221;28;20026;-68
2021/03/24 10:42:44;;;;;;;46.80;29.90;;;12.20;64.40;;;;;;4985375;28;20200;-69
2021/03/24 10:45:30;;;;;;;47.50;30.30;;;12.50;65.60;;;;;;5003107;28;20026;-68
2021/03/24 10:48:13;;;;;;;42.78;29.25;;;12.30;64.20;;;;;;5002587;28;20117;-68
2021/03/24 10:51:18;;;;;;;45.63;29.20;;;12.90;62.30;;;;;;4998752;28;20116;-68
2021/03/24 10:53:44;;;;;;;42.03;28.90;;;13.10;62.40;;;;;;4970240;28;20133;-68
2021/03/24 10:56:38;;;;;;;43.17;28.80;;;13.50;61.90;;;;;;5006855;28;20026;-69
2021/03/24 10:59:26;;;;;;;41.55;27.08;;;13.00;62.50;;;;;;4997271;28;20046;-68
2021/03/24 11:02:01;;;;;;;42.00;27.85;;;12.80;61.30;;;;;;5005384;28;20053;-67
2021/03/24 11:04:44;;;;;;;43.28;28.20;;;12.90;63.20;;;;;;5005728;28;20112;-69
2021/03/24 11:07:23;;;;;;;43.13;26.92;;;12.90;62.20;;;;;;5003699;28;20026;-68
2021/03/24 11:10:17;;;;;;;39.65;27.55;;;12.50;61.80;;;;;;4997586;28;20414;-67
2021/03/24 11:12:55;;;;;;;42.58;27.27;;;12.60;61.00;;;;;;4958344;28;20125;-68
2021/03/24 11:16:01;;;;;;;42.60;27.70;;;12.30;61.70;;;;;;5005941;28;20022;-68
2021/03/24 11:18:35;;;;;;;43.72;28.65;;;12.50;64.10;;;;;;5002803;28;22249;-68
2021/03/24 11:21:09;;;;;;;40.53;27.90;;;12.50;63.30;;;;;;5008273;28;20386;-68
2021/03/24 11:23:50;;;;;;;44.78;28.55;;;12.40;62.50;;;;;;4995397;28;20076;-69
2021/03/24 11:26:30;;;;;;;46.00;28.38;;;12.50;63.30;;;;;;4992355;28;20018;-68
2021/03/24 11:29:00;;;;;;;40.50;27.42;;;12.60;62.80;;;;;;5002031;28;20142;-69
2021/03/24 11:31:59;;;;;;;42.28;29.20;;;12.50;61.80;;;;;;5001412;28;20052;-68
2021/03/24 11:34:47;;;;;;;45.60;29.58;;;12.50;63.10;;;;;;4991379;28;20265;-68
2021/03/24 11:37:18;;;;;;;46.92;29.40;;;12.60;64.00;;;;;;4998984;28;20141;-67
2021/03/24 11:39:53;;;;;;;47.25;29.83;;;12.30;63.50;;;;;;4999197;28;20362;-68
2021/03/24 11:42:20;;;;;;;45.55;28.45;;;12.30;63.50;;;;;;5000387;28;20052;-68
2021/03/24 11:44:50;;;;;;;43.03;27.95;;;12.30;63.70;;;;;;5004608;28;20026;-68
2021/03/24 11:47:27;;;;;;;46.08;30.13;;;12.30;63.70;;;;;;5002832;28;20040;-69
2021/03/24 11:50:11;;;;;;;49.03;30.58;;;12.20;63.60;;;;;;4990635;28;20030;-68
2021/03/24 11:52:47;;;;;;;49.58;30.83;;;12.40;63.90;;;;;;5006452;28;20069;-68
2021/03/24 11:55:28;;;;;;;53.10;30.27;;;12.90;63.30;;;;;;5004147;28;20026;-68
2021/03/24 11:58:15;;;;;;;45.63;28.88;;;13.10;60.80;;;;;;5000987;28;20041;-68
2021/03/24 12:01:28;;;;;;;44.90;29.17;;;12.80;61.90;;;;;;4996061;28;20130;-68
2021/03/24 12:04:24;;;;;;;46.53;30.67;;;13.00;62.50;;;;;;4984918;28;20045;-68
2021/03/24 12:07:11;;;;;;;47.00;30.00;;;13.30;62.30;;;;;;5003684;28;20264;-69
2021/03/24 12:09:39;;;;;;;45.25;28.98;;;14.10;58.90;;;;;;5004643;28;20033;-69
2021/03/24 12:12:11;;;;;;;49.47;30.27;;;14.30;58.40;;;;;;5003106;28;20057;-69
2021/03/24 12:14:43;;;;;;;44.42;29.00;;;14.30;57.40;;;;;;5002987;28;20068;-68
2021/03/24 12:17:34;;;;;;;43.85;29.73;;;14.50;57.90;;;;;;4998071;28;20053;-70
2021/03/24 12:20:10;;;;;;;;;;;14.60;56.10;;;;;;5017939;28;20042;-69
2021/03/24 12:22:37;;;;;;;39.88;27.08;;;15.30;54.60;;;;;;5003731;28;19936;-69
2021/03/24 12:25:20;;;;;;;42.13;27.77;;;14.80;54.90;;;;;;5002236;28;20030;-69
2021/03/24 12:27:48;;;;;;;42.47;28.13;;;14.90;52.30;;;;;;4994419;28;20405;-69
2021/03/24 12:30:20;;;;;;;43.28;29.55;;;14.80;55.20;;;;;;5001375;28;20042;-69
2021/03/24 12:32:46;;;;;;;44.45;29.10;;;15.00;55.00;;;;;;4999902;28;20025;-69
2021/03/24 12:35:27;;;;;;;42.67;30.48;;;14.90;56.00;;;;;;5000638;28;20421;-68
2021/03/24 12:38:08;;;;;;;40.20;28.63;;;15.10;54.10;;;;;;5000768;28;20128;-69
2021/03/24 12:40:34;;;;;;;43.35;29.73;;;14.80;53.90;;;;;;5003171;28;20029;-68
2021/03/24 12:43:15;;;;;;;41.17;28.63;;;15.00;53.80;;;;;;5002493;28;20499;-68
2021/03/24 12:45:41;;;;;;;;;;;14.90;53.90;;;;;;5006313;28;20030;-68
2021/03/24 12:48:13;;;;;;;40.83;28.65;;;15.30;53.30;;;;;;5006765;28;19971;-68
2021/03/24 12:50:59;;;;;;;45.35;30.00;;;15.20;54.70;;;;;;4996862;28;20091;-69
2021/03/24 12:53:40;;;;;;;38.72;29.20;;;15.30;53.80;;;;;;4999126;28;20441;-70
2021/03/24 12:56:34;;;;;;;47.60;28.65;;;15.40;53.30;;;;;;5006774;28;20018;-68
2021/03/24 12:59:17;;;;;;;43.47;29.38;;;15.50;53.00;;;;;;5000928;28;20533;-69
2021/03/24 13:01:55;;;;;;;40.47;29.48;;;15.80;52.80;;;;;;4990143;28;20133;-67
2021/03/24 13:04:43;;;;;;;43.60;28.77;;;15.70;52.20;;;;;;4996979;28;20113;-68
2021/03/24 13:07:25;;;;;;;41.90;30.15;;;15.90;52.00;;;;;;4999355;28;20041;-69
2021/03/24 13:10:16;;;;;;;39.25;28.15;;;16.10;51.20;;;;;;5002107;28;20396;-68
2021/03/24 13:12:55;;;;;;;37.00;26.88;;;16.10;50.80;;;;;;4997646;28;20042;-68
2021/03/24 13:15:43;;;;;;;38.63;27.20;;;16.40;51.30;;;;;;4982722;28;20073;-70
2021/03/24 13:18:16;;;;;;;40.42;28.00;;;16.10;50.00;;;;;;4991227;28;21686;-70
2021/03/24 13:21:07;;;;;;;40.72;26.98;;;16.20;49.40;;;;;;4995479;28;20180;-69
2021/03/24 13:23:50;;;;;;;41.13;26.52;;;15.90;50.20;;;;;;5005802;28;20402;-68
2021/03/24 13:26:29;;;;;;;41.53;27.92;;;16.00;50.10;;;;;;5002719;28;20022;-68
2021/03/24 13:29:08;;;;;;;38.97;26.63;;;15.90;51.00;;;;;;4997321;28;20286;-67